Terminal Aerodrome Forecast
Issued by NWS

Home | Current Version | Previous Version | Text Only | Print | Product List | Glossary On
Versions: 1 2 3 4 5 6 7 8 9 10 11 12 13 14
000
FTUS45 KFGZ 251257 AAA
TAFPGA
TAF AMD
KPGA 251257Z 2513/2612 VRB06KT P6SM SCT100
     FM252000 27009KT P6SM BKN100 PROB30 2522/2602 VRB20G30KT -TSRA
      BKN100CB=

USA.gov is the U.S. government's official web portal to all federal, state and local government web resources and services.